sensor_id;sensor_type;location;lat;lon;timestamp;P1;durP1;ratioP1;P2;durP2;ratioP2
14520;SDS011;7347;50.844;4.490;2023-05-19T06:28:14;6.80;;;3.53;;
14520;SDS011;7347;50.844;4.490;2023-05-19T06:30:41;5.03;;;3.28;;
14520;SDS011;7347;50.844;4.490;2023-05-19T06:33:07;5.47;;;3.25;;
14520;SDS011;7347;50.844;4.490;2023-05-19T06:35:34;6.07;;;3.47;;
14520;SDS011;7347;50.844;4.490;2023-05-19T06:38:02;8.68;;;4.10;;
14520;SDS011;7347;50.844;4.490;2023-05-19T06:40:29;5.15;;;3.47;;
14520;SDS011;7347;50.844;4.490;2023-05-19T06:42:56;7.18;;;3.72;;
14520;SDS011;7347;50.844;4.490;2023-05-19T06:45:24;5.68;;;3.92;;
14520;SDS011;7347;50.844;4.490;2023-05-19T06:47:51;6.68;;;3.22;;
14520;SDS011;7347;50.844;4.490;2023-05-19T06:50:18;5.97;;;3.28;;
14520;SDS011;7347;50.844;4.490;2023-05-19T06:52:45;6.93;;;3.30;;
14520;SDS011;7347;50.844;4.490;2023-05-19T06:55:12;6.90;;;3.88;;
14520;SDS011;7347;50.844;4.490;2023-05-19T06:57:39;4.53;;;3.25;;
14520;SDS011;7347;50.844;4.490;2023-05-19T07:00:07;6.93;;;4.18;;
14520;SDS011;7347;50.844;4.490;2023-05-19T07:02:37;5.75;;;3.50;;
14520;SDS011;7347;50.844;4.490;2023-05-19T07:05:04;6.55;;;3.80;;
14520;SDS011;7347;50.844;4.490;2023-05-19T07:07:32;5.97;;;3.40;;
14520;SDS011;7347;50.844;4.490;2023-05-19T07:09:59;6.05;;;3.50;;
14520;SDS011;7347;50.844;4.490;2023-05-19T07:12:26;5.32;;;3.15;;
14520;SDS011;7347;50.844;4.490;2023-05-19T07:14:52;10.20;;;3.45;;
14520;SDS011;7347;50.844;4.490;2023-05-19T07:17:19;6.38;;;3.40;;
14520;SDS011;7347;50.844;4.490;2023-05-19T07:19:48;5.97;;;3.38;;
14520;SDS011;7347;50.844;4.490;2023-05-19T07:22:15;3.92;;;2.90;;
14520;SDS011;7347;50.844;4.490;2023-05-19T07:24:42;5.68;;;3.30;;
14520;SDS011;7347;50.844;4.490;2023-05-19T07:27:09;4.38;;;3.25;;
14520;SDS011;7347;50.844;4.490;2023-05-19T07:29:35;4.82;;;3.40;;
14520;SDS011;7347;50.844;4.490;2023-05-19T07:32:03;5.75;;;3.42;;
14520;SDS011;7347;50.844;4.490;2023-05-19T07:34:31;5.60;;;3.30;;
14520;SDS011;7347;50.844;4.490;2023-05-19T07:36:59;8.15;;;3.60;;
14520;SDS011;7347;50.844;4.490;2023-05-19T07:39:26;5.75;;;3.67;;
14520;SDS011;7347;50.844;4.490;2023-05-19T07:41:53;4.80;;;3.10;;
14520;SDS011;7347;50.844;4.490;2023-05-19T07:44:20;5.32;;;3.10;;
14520;SDS011;7347;50.844;4.490;2023-05-19T07:46:47;6.65;;;3.42;;
14520;SDS011;7347;50.844;4.490;2023-05-19T07:49:14;5.75;;;2.97;;
14520;SDS011;7347;50.844;4.490;2023-05-19T07:51:41;6.68;;;2.95;;
14520;SDS011;7347;50.844;4.490;2023-05-19T07:54:09;6.07;;;3.42;;
14520;SDS011;7347;50.844;4.490;2023-05-19T07:56:36;8.82;;;3.53;;
14520;SDS011;7347;50.844;4.490;2023-05-19T07:59:04;4.47;;;3.00;;
14520;SDS011;7347;50.844;4.490;2023-05-19T08:01:31;8.02;;;2.95;;
14520;SDS011;7347;50.844;4.490;2023-05-19T08:03:59;3.47;;;3.17;;
14520;SDS011;7347;50.844;4.490;2023-05-19T08:06:25;6.40;;;3.17;;
14520;SDS011;7347;50.844;4.490;2023-05-19T08:08:54;5.28;;;3.20;;
14520;SDS011;7347;50.844;4.490;2023-05-19T08:11:22;6.95;;;3.30;;
14520;SDS011;7347;50.844;4.490;2023-05-19T08:13:49;6.85;;;3.55;;
14520;SDS011;7347;50.844;4.490;2023-05-19T08:16:16;5.88;;;3.40;;
14520;SDS011;7347;50.844;4.490;2023-05-19T08:18:43;5.20;;;3.15;;
14520;SDS011;7347;50.844;4.490;2023-05-19T08:21:10;7.10;;;3.10;;
14520;SDS011;7347;50.844;4.490;2023-05-19T08:23:36;6.82;;;3.00;;
14520;SDS011;7347;50.844;4.490;2023-05-19T08:26:03;4.32;;;2.60;;
14520;SDS011;7347;50.844;4.490;2023-05-19T08:28:32;3.65;;;2.35;;
14520;SDS011;7347;50.844;4.490;2023-05-19T08:30:59;4.15;;;2.50;;
14520;SDS011;7347;50.844;4.490;2023-05-19T08:33:26;4.63;;;2.33;;
14520;SDS011;7347;50.844;4.490;2023-05-19T08:35:54;3.60;;;2.60;;
14520;SDS011;7347;50.844;4.490;2023-05-19T08:38:22;4.53;;;2.47;;
14520;SDS011;7347;50.844;4.490;2023-05-19T08:40:48;3.70;;;2.72;;
14520;SDS011;7347;50.844;4.490;2023-05-19T08:43:16;5.57;;;2.80;;
14520;SDS011;7347;50.844;4.490;2023-05-19T08:45:44;3.92;;;2.35;;
14520;SDS011;7347;50.844;4.490;2023-05-19T08:48:12;4.55;;;2.20;;
14520;SDS011;7347;50.844;4.490;2023-05-19T08:50:42;4.93;;;2.30;;
14520;SDS011;7347;50.844;4.490;2023-05-19T08:53:17;3.90;;;2.15;;
14520;SDS011;7347;50.844;4.490;2023-05-19T08:55:49;2.42;;;1.75;;
14520;SDS011;7347;50.844;4.490;2023-05-19T08:58:24;3.42;;;2.08;;
14520;SDS011;7347;50.844;4.490;2023-05-19T09:00:53;4.25;;;2.35;;
14520;SDS011;7347;50.844;4.490;2023-05-19T09:03:22;7.18;;;2.20;;
14520;SDS011;7347;50.844;4.490;2023-05-19T09:05:50;5.70;;;2.67;;
14520;SDS011;7347;50.844;4.490;2023-05-19T09:08:17;4.65;;;1.88;;
14520;SDS011;7347;50.844;4.490;2023-05-19T09:10:44;3.35;;;2.30;;
14520;SDS011;7347;50.844;4.490;2023-05-19T09:13:11;5.32;;;2.05;;
14520;SDS011;7347;50.844;4.490;2023-05-19T09:15:38;5.30;;;2.20;;
14520;SDS011;7347;50.844;4.490;2023-05-19T09:18:08;2.88;;;1.70;;
14520;SDS011;7347;50.844;4.490;2023-05-19T09:20:36;5.38;;;2.03;;
14520;SDS011;7347;50.844;4.490;2023-05-19T09:23:04;4.90;;;1.80;;
14520;SDS011;7347;50.844;4.490;2023-05-19T09:25:31;4.15;;;2.17;;
14520;SDS011;7347;50.844;4.490;2023-05-19T09:27:59;4.68;;;2.00;;
14520;SDS011;7347;50.844;4.490;2023-05-19T09:30:26;7.38;;;1.70;;
14520;SDS011;7347;50.844;4.490;2023-05-19T09:32:52;2.17;;;1.55;;
14520;SDS011;7347;50.844;4.490;2023-05-19T09:35:21;2.60;;;1.67;;
14520;SDS011;7347;50.844;4.490;2023-05-19T09:37:48;6.18;;;1.73;;
14520;SDS011;7347;50.844;4.490;2023-05-19T09:40:15;3.70;;;1.58;;
14520;SDS011;7347;50.844;4.490;2023-05-19T09:42:42;3.58;;;1.45;;
14520;SDS011;7347;50.844;4.490;2023-05-19T09:45:09;2.20;;;1.10;;
14520;SDS011;7347;50.844;4.490;2023-05-19T09:47:36;2.72;;;1.00;;
14520;SDS011;7347;50.844;4.490;2023-05-19T09:50:04;4.88;;;1.50;;
14520;SDS011;7347;50.844;4.490;2023-05-19T09:52:37;2.90;;;1.23;;
14520;SDS011;7347;50.844;4.490;2023-05-19T09:55:05;2.58;;;1.00;;
14520;SDS011;7347;50.844;4.490;2023-05-19T09:57:36;3.30;;;1.15;;
14520;SDS011;7347;50.844;4.490;2023-05-19T10:00:03;2.42;;;1.00;;
14520;SDS011;7347;50.844;4.490;2023-05-19T10:02:37;2.25;;;1.23;;
14520;SDS011;7347;50.844;4.490;2023-05-19T10:05:06;4.15;;;1.33;;
14520;SDS011;7347;50.844;4.490;2023-05-19T10:07:37;3.25;;;1.10;;
14520;SDS011;7347;50.844;4.490;2023-05-19T10:10:07;3.30;;;1.63;;
14520;SDS011;7347;50.844;4.490;2023-05-19T10:12:36;4.00;;;1.52;;
14520;SDS011;7347;50.844;4.490;2023-05-19T10:15:05;2.42;;;1.67;;
14520;SDS011;7347;50.844;4.490;2023-05-19T10:17:34;5.15;;;1.58;;
14520;SDS011;7347;50.844;4.490;2023-05-19T10:20:03;2.50;;;1.40;;
14520;SDS011;7347;50.844;4.490;2023-05-19T10:22:32;3.90;;;1.45;;
14520;SDS011;7347;50.844;4.490;2023-05-19T10:25:00;6.87;;;1.70;;
14520;SDS011;7347;50.844;4.490;2023-05-19T10:27:27;3.60;;;1.60;;
14520;SDS011;7347;50.844;4.490;2023-05-19T10:29:57;4.87;;;1.60;;
14520;SDS011;7347;50.844;4.490;2023-05-19T10:32:29;2.53;;;1.47;;
14520;SDS011;7347;50.844;4.490;2023-05-19T10:38:10;3.30;;;1.70;;
14520;SDS011;7347;50.844;4.490;2023-05-19T10:40:50;3.50;;;1.50;;
14520;SDS011;7347;50.844;4.490;2023-05-19T10:43:24;5.68;;;1.70;;
14520;SDS011;7347;50.844;4.490;2023-05-19T10:46:02;4.13;;;1.65;;
14520;SDS011;7347;50.844;4.490;2023-05-19T10:48:32;4.43;;;1.67;;
14520;SDS011;7347;50.844;4.490;2023-05-19T10:51:00;2.85;;;1.33;;
14520;SDS011;7347;50.844;4.490;2023-05-19T10:53:29;3.20;;;1.58;;
14520;SDS011;7347;50.844;4.490;2023-05-19T10:55:59;2.75;;;1.67;;
14520;SDS011;7347;50.844;4.490;2023-05-19T10:58:38;1.40;;;1.30;;
14520;SDS011;7347;50.844;4.490;2023-05-19T11:01:14;3.50;;;1.50;;
14520;SDS011;7347;50.844;4.490;2023-05-19T11:03:46;3.35;;;1.60;;
14520;SDS011;7347;50.844;4.490;2023-05-19T11:06:20;2.55;;;1.55;;
14520;SDS011;7347;50.844;4.490;2023-05-19T11:08:51;3.95;;;1.40;;
14520;SDS011;7347;50.844;4.490;2023-05-19T11:11:21;3.67;;;1.48;;
14520;SDS011;7347;50.844;4.490;2023-05-19T11:13:49;3.95;;;1.73;;
14520;SDS011;7347;50.844;4.490;2023-05-19T11:16:25;3.22;;;1.73;;
14520;SDS011;7347;50.844;4.490;2023-05-19T11:18:53;3.90;;;1.58;;
14520;SDS011;7347;50.844;4.490;2023-05-19T11:21:20;3.35;;;1.60;;
14520;SDS011;7347;50.844;4.490;2023-05-19T11:23:47;3.78;;;1.40;;
14520;SDS011;7347;50.844;4.490;2023-05-19T11:26:15;2.22;;;1.20;;
14520;SDS011;7347;50.844;4.490;2023-05-19T11:29:08;3.50;;;1.40;;
14520;SDS011;7347;50.844;4.490;2023-05-19T11:31:36;6.43;;;1.48;;
14520;SDS011;7347;50.844;4.490;2023-05-19T11:34:05;2.15;;;1.20;;
14520;SDS011;7347;50.844;4.490;2023-05-19T11:36:33;5.43;;;1.10;;
14520;SDS011;7347;50.844;4.490;2023-05-19T11:39:02;1.98;;;1.05;;
14520;SDS011;7347;50.844;4.490;2023-05-19T11:41:30;4.45;;;1.55;;
14520;SDS011;7347;50.844;4.490;2023-05-19T11:43:59;5.17;;;1.37;;
14520;SDS011;7347;50.844;4.490;2023-05-19T11:46:25;2.33;;;1.13;;
14520;SDS011;7347;50.844;4.490;2023-05-19T11:48:53;1.17;;;0.98;;
14520;SDS011;7347;50.844;4.490;2023-05-19T11:51:20;3.67;;;1.38;;
14520;SDS011;7347;50.844;4.490;2023-05-19T11:53:48;3.17;;;1.27;;
14520;SDS011;7347;50.844;4.490;2023-05-19T11:56:15;2.10;;;1.20;;
14520;SDS011;7347;50.844;4.490;2023-05-19T11:58:42;2.78;;;1.25;;
14520;SDS011;7347;50.844;4.490;2023-05-19T12:01:10;3.55;;;1.08;;
14520;SDS011;7347;50.844;4.490;2023-05-19T12:03:37;3.00;;;1.10;;
14520;SDS011;7347;50.844;4.490;2023-05-19T12:06:05;3.47;;;1.07;;
14520;SDS011;7347;50.844;4.490;2023-05-19T12:08:33;3.53;;;1.17;;
14520;SDS011;7347;50.844;4.490;2023-05-19T12:11:01;1.98;;;0.90;;
14520;SDS011;7347;50.844;4.490;2023-05-19T12:13:28;3.05;;;1.20;;
14520;SDS011;7347;50.844;4.490;2023-05-19T12:15:58;1.60;;;0.70;;
14520;SDS011;7347;50.844;4.490;2023-05-19T12:18:28;3.13;;;0.90;;
14520;SDS011;7347;50.844;4.490;2023-05-19T12:20:56;3.97;;;1.17;;
14520;SDS011;7347;50.844;4.490;2023-05-19T12:23:23;2.08;;;0.90;;
14520;SDS011;7347;50.844;4.490;2023-05-19T12:25:51;5.05;;;0.75;;
14520;SDS011;7347;50.844;4.490;2023-05-19T12:28:18;2.00;;;1.02;;
14520;SDS011;7347;50.844;4.490;2023-05-19T12:30:46;2.97;;;1.02;;
14520;SDS011;7347;50.844;4.490;2023-05-19T12:33:16;1.98;;;1.02;;
14520;SDS011;7347;50.844;4.490;2023-05-19T12:35:45;3.85;;;0.80;;
14520;SDS011;7347;50.844;4.490;2023-05-19T12:38:14;1.92;;;0.93;;
14520;SDS011;7347;50.844;4.490;2023-05-19T12:40:41;4.65;;;0.88;;
14520;SDS011;7347;50.844;4.490;2023-05-19T12:43:17;1.73;;;0.93;;
14520;SDS011;7347;50.844;4.490;2023-05-19T12:45:45;2.80;;;0.95;;
14520;SDS011;7347;50.844;4.490;2023-05-19T12:48:12;2.05;;;1.25;;
14520;SDS011;7347;50.844;4.490;2023-05-19T12:50:40;1.63;;;0.93;;
14520;SDS011;7347;50.844;4.490;2023-05-19T12:53:10;2.88;;;1.10;;
14520;SDS011;7347;50.844;4.490;2023-05-19T12:55:38;6.22;;;1.10;;
14520;SDS011;7347;50.844;4.490;2023-05-19T12:58:07;2.63;;;0.88;;
14520;SDS011;7347;50.844;4.490;2023-05-19T13:00:38;3.22;;;1.00;;
14520;SDS011;7347;50.844;4.490;2023-05-19T13:03:07;3.05;;;1.17;;
14520;SDS011;7347;50.844;4.490;2023-05-19T13:05:41;2.33;;;1.00;;
14520;SDS011;7347;50.844;4.490;2023-05-19T13:08:12;2.22;;;1.00;;
14520;SDS011;7347;50.844;4.490;2023-05-19T13:10:40;1.83;;;1.00;;
14520;SDS011;7347;50.844;4.490;2023-05-19T13:13:08;2.20;;;1.00;;
14520;SDS011;7347;50.844;4.490;2023-05-19T13:15:36;3.88;;;1.13;;
14520;SDS011;7347;50.844;4.490;2023-05-19T13:18:04;2.47;;;1.35;;
14520;SDS011;7347;50.844;4.490;2023-05-19T13:20:32;3.83;;;1.83;;
14520;SDS011;7347;50.844;4.490;2023-05-19T13:23:00;2.78;;;1.10;;
14520;SDS011;7347;50.844;4.490;2023-05-19T13:25:30;1.77;;;1.20;;
14520;SDS011;7347;50.844;4.490;2023-05-19T13:27:58;4.50;;;1.10;;
14520;SDS011;7347;50.844;4.490;2023-05-19T13:30:25;2.38;;;0.88;;
14520;SDS011;7347;50.844;4.490;2023-05-19T13:32:52;1.33;;;1.00;;
14520;SDS011;7347;50.844;4.490;2023-05-19T13:35:19;1.77;;;1.05;;
14520;SDS011;7347;50.844;4.490;2023-05-19T13:37:47;2.88;;;1.00;;
14520;SDS011;7347;50.844;4.490;2023-05-19T13:40:15;2.90;;;1.08;;
14520;SDS011;7347;50.844;4.490;2023-05-19T13:42:44;2.88;;;1.20;;
14520;SDS011;7347;50.844;4.490;2023-05-19T13:45:11;1.67;;;1.00;;
14520;SDS011;7347;50.844;4.490;2023-05-19T13:47:38;2.15;;;1.10;;
14520;SDS011;7347;50.844;4.490;2023-05-19T13:50:05;2.72;;;0.93;;
14520;SDS011;7347;50.844;4.490;2023-05-19T13:52:33;3.33;;;1.27;;
14520;SDS011;7347;50.844;4.490;2023-05-19T13:55:00;2.17;;;1.08;;
14520;SDS011;7347;50.844;4.490;2023-05-19T13:57:27;5.25;;;1.10;;
14520;SDS011;7347;50.844;4.490;2023-05-19T13:59:55;2.95;;;1.17;;
14520;SDS011;7347;50.844;4.490;2023-05-19T14:02:22;2.95;;;1.20;;
14520;SDS011;7347;50.844;4.490;2023-05-19T14:04:50;3.08;;;1.10;;
14520;SDS011;7347;50.844;4.490;2023-05-19T14:07:17;2.90;;;1.38;;
14520;SDS011;7347;50.844;4.490;2023-05-19T14:09:44;5.72;;;1.00;;
14520;SDS011;7347;50.844;4.490;2023-05-19T14:12:11;4.03;;;1.20;;
14520;SDS011;7347;50.844;4.490;2023-05-19T14:14:38;1.92;;;1.00;;
14520;SDS011;7347;50.844;4.490;2023-05-19T14:17:06;4.90;;;1.15;;
14520;SDS011;7347;50.844;4.490;2023-05-19T14:19:33;2.13;;;0.90;;
14520;SDS011;7347;50.844;4.490;2023-05-19T14:22:01;3.28;;;1.00;;
14520;SDS011;7347;50.844;4.490;2023-05-19T14:24:28;2.58;;;1.00;;
14520;SDS011;7347;50.844;4.490;2023-05-19T14:26:55;1.92;;;0.90;;
14520;SDS011;7347;50.844;4.490;2023-05-19T14:29:22;2.42;;;0.85;;
14520;SDS011;7347;50.844;4.490;2023-05-19T14:31:49;2.15;;;1.02;;
14520;SDS011;7347;50.844;4.490;2023-05-19T14:34:18;2.20;;;0.90;;
14520;SDS011;7347;50.844;4.490;2023-05-19T14:36:45;2.20;;;1.25;;
14520;SDS011;7347;50.844;4.490;2023-05-19T14:39:12;3.40;;;1.00;;
14520;SDS011;7347;50.844;4.490;2023-05-19T14:41:39;3.95;;;1.05;;
14520;SDS011;7347;50.844;4.490;2023-05-19T14:44:06;4.70;;;1.38;;
14520;SDS011;7347;50.844;4.490;2023-05-19T14:46:33;3.25;;;1.02;;
14520;SDS011;7347;50.844;4.490;2023-05-19T14:49:00;2.63;;;1.00;;
14520;SDS011;7347;50.844;4.490;2023-05-19T14:51:28;3.45;;;0.93;;
14520;SDS011;7347;50.844;4.490;2023-05-19T14:53:55;2.35;;;1.10;;
14520;SDS011;7347;50.844;4.490;2023-05-19T14:56:22;3.58;;;1.33;;
14520;SDS011;7347;50.844;4.490;2023-05-19T14:58:49;2.28;;;1.13;;
14520;SDS011;7347;50.844;4.490;2023-05-19T15:01:16;4.90;;;1.30;;
14520;SDS011;7347;50.844;4.490;2023-05-19T15:03:43;2.13;;;0.95;;
14520;SDS011;7347;50.844;4.490;2023-05-19T15:06:10;4.10;;;1.30;;
14520;SDS011;7347;50.844;4.490;2023-05-19T15:08:38;1.55;;;0.90;;
14520;SDS011;7347;50.844;4.490;2023-05-19T15:11:05;2.92;;;0.90;;
14520;SDS011;7347;50.844;4.490;2023-05-19T15:13:32;3.47;;;1.08;;
14520;SDS011;7347;50.844;4.490;2023-05-19T15:15:59;2.83;;;0.80;;
14520;SDS011;7347;50.844;4.490;2023-05-19T15:18:26;2.25;;;0.80;;
14520;SDS011;7347;50.844;4.490;2023-05-19T15:20:53;4.60;;;0.93;;
14520;SDS011;7347;50.844;4.490;2023-05-19T15:23:20;2.45;;;1.55;;
14520;SDS011;7347;50.844;4.490;2023-05-19T15:25:48;1.90;;;0.85;;
14520;SDS011;7347;50.844;4.490;2023-05-19T15:28:17;5.72;;;1.00;;
14520;SDS011;7347;50.844;4.490;2023-05-19T15:30:44;2.35;;;0.90;;
14520;SDS011;7347;50.844;4.490;2023-05-19T15:33:11;4.32;;;0.85;;
14520;SDS011;7347;50.844;4.490;2023-05-19T15:35:38;4.60;;;1.05;;
14520;SDS011;7347;50.844;4.490;2023-05-19T15:38:05;2.22;;;0.88;;
14520;SDS011;7347;50.844;4.490;2023-05-19T15:40:32;1.90;;;0.80;;
14520;SDS011;7347;50.844;4.490;2023-05-19T15:43:00;2.78;;;1.13;;
14520;SDS011;7347;50.844;4.490;2023-05-19T15:45:27;4.30;;;1.67;;
14520;SDS011;7347;50.844;4.490;2023-05-19T15:47:54;4.85;;;0.80;;
14520;SDS011;7347;50.844;4.490;2023-05-19T15:50:21;1.92;;;1.00;;
14520;SDS011;7347;50.844;4.490;2023-05-19T15:52:50;1.35;;;0.90;;
14520;SDS011;7347;50.844;4.490;2023-05-19T15:55:17;1.92;;;0.60;;
14520;SDS011;7347;50.844;4.490;2023-05-19T15:57:44;2.08;;;0.90;;
14520;SDS011;7347;50.844;4.490;2023-05-19T16:00:13;2.65;;;0.98;;
14520;SDS011;7347;50.844;4.490;2023-05-19T16:02:40;2.47;;;0.98;;
14520;SDS011;7347;50.844;4.490;2023-05-19T16:05:07;1.55;;;1.20;;
14520;SDS011;7347;50.844;4.490;2023-05-19T16:07:34;1.40;;;1.08;;
14520;SDS011;7347;50.844;4.490;2023-05-19T16:10:01;2.55;;;1.00;;
14520;SDS011;7347;50.844;4.490;2023-05-19T16:12:28;1.88;;;0.80;;
14520;SDS011;7347;50.844;4.490;2023-05-19T16:14:55;3.08;;;1.00;;
14520;SDS011;7347;50.844;4.490;2023-05-19T16:17:24;3.90;;;1.38;;
14520;SDS011;7347;50.844;4.490;2023-05-19T16:19:51;2.28;;;1.00;;
14520;SDS011;7347;50.844;4.490;2023-05-19T16:22:18;3.10;;;1.20;;
14520;SDS011;7347;50.844;4.490;2023-05-19T16:24:48;2.92;;;1.10;;
14520;SDS011;7347;50.844;4.490;2023-05-19T16:27:15;3.10;;;0.90;;
14520;SDS011;7347;50.844;4.490;2023-05-19T16:29:42;4.75;;;0.93;;
14520;SDS011;7347;50.844;4.490;2023-05-19T16:32:09;4.47;;;0.90;;
14520;SDS011;7347;50.844;4.490;2023-05-19T16:34:37;1.60;;;1.02;;
14520;SDS011;7347;50.844;4.490;2023-05-19T16:37:05;4.30;;;1.30;;
14520;SDS011;7347;50.844;4.490;2023-05-19T16:39:33;4.03;;;1.00;;
14520;SDS011;7347;50.844;4.490;2023-05-19T16:42:01;2.95;;;0.98;;
14520;SDS011;7347;50.844;4.490;2023-05-19T16:44:28;3.20;;;1.00;;
14520;SDS011;7347;50.844;4.490;2023-05-19T16:46:54;3.33;;;0.98;;
14520;SDS011;7347;50.844;4.490;2023-05-19T16:49:21;4.00;;;1.03;;
14520;SDS011;7347;50.844;4.490;2023-05-19T16:51:50;4.37;;;0.83;;
14520;SDS011;7347;50.844;4.490;2023-05-19T16:54:18;1.93;;;0.90;;
14520;SDS011;7347;50.844;4.490;2023-05-19T16:56:45;3.08;;;0.95;;
14520;SDS011;7347;50.844;4.490;2023-05-19T16:59:12;3.60;;;1.40;;
14520;SDS011;7347;50.844;4.490;2023-05-19T17:01:39;3.92;;;0.90;;
14520;SDS011;7347;50.844;4.490;2023-05-19T17:04:05;2.92;;;0.88;;
14520;SDS011;7347;50.844;4.490;2023-05-19T17:06:32;2.33;;;0.90;;
14520;SDS011;7347;50.844;4.490;2023-05-19T17:09:01;3.20;;;1.00;;
14520;SDS011;7347;50.844;4.490;2023-05-19T17:11:28;2.28;;;0.93;;
14520;SDS011;7347;50.844;4.490;2023-05-19T17:13:55;2.63;;;0.90;;
14520;SDS011;7347;50.844;4.490;2023-05-19T17:16:21;6.65;;;1.15;;
14520;SDS011;7347;50.844;4.490;2023-05-19T17:18:48;3.97;;;1.10;;
14520;SDS011;7347;50.844;4.490;2023-05-19T17:21:15;2.08;;;0.93;;
14520;SDS011;7347;50.844;4.490;2023-05-19T17:23:42;4.97;;;1.20;;
14520;SDS011;7347;50.844;4.490;2023-05-19T17:26:11;4.00;;;1.03;;
14520;SDS011;7347;50.844;4.490;2023-05-19T17:28:37;1.63;;;0.73;;
14520;SDS011;7347;50.844;4.490;2023-05-19T17:31:08;4.70;;;1.17;;
14520;SDS011;7347;50.844;4.490;2023-05-19T17:33:36;3.67;;;1.30;;
14520;SDS011;7347;50.844;4.490;2023-05-19T17:36:03;2.87;;;1.10;;
14520;SDS011;7347;50.844;4.490;2023-05-19T17:38:32;1.80;;;0.80;;
14520;SDS011;7347;50.844;4.490;2023-05-19T17:40:59;3.28;;;1.00;;
14520;SDS011;7347;50.844;4.490;2023-05-19T17:43:28;1.77;;;1.10;;
14520;SDS011;7347;50.844;4.490;2023-05-19T17:45:55;4.38;;;1.00;;
14520;SDS011;7347;50.844;4.490;2023-05-19T17:48:22;2.43;;;0.90;;
14520;SDS011;7347;50.844;4.490;2023-05-19T17:50:49;2.43;;;0.90;;
14520;SDS011;7347;50.844;4.490;2023-05-19T17:53:16;2.50;;;1.03;;
14520;SDS011;7347;50.844;4.490;2023-05-19T17:55:46;2.17;;;0.90;;
14520;SDS011;7347;50.844;4.490;2023-05-19T17:58:17;4.50;;;0.93;;
14520;SDS011;7347;50.844;4.490;2023-05-19T18:00:46;1.83;;;0.93;;
14520;SDS011;7347;50.844;4.490;2023-05-19T18:03:13;5.60;;;1.20;;
14520;SDS011;7347;50.844;4.490;2023-05-19T18:05:40;4.73;;;2.07;;
14520;SDS011;7347;50.844;4.490;2023-05-19T18:08:08;4.37;;;1.10;;
14520;SDS011;7347;50.844;4.490;2023-05-19T18:10:38;4.00;;;1.00;;
14520;SDS011;7347;50.844;4.490;2023-05-19T18:13:07;2.90;;;1.10;;
14520;SDS011;7347;50.844;4.490;2023-05-19T18:15:35;3.40;;;1.10;;
14520;SDS011;7347;50.844;4.490;2023-05-19T18:18:03;1.77;;;1.00;;
14520;SDS011;7347;50.844;4.490;2023-05-19T18:20:31;3.27;;;1.13;;
14520;SDS011;7347;50.844;4.490;2023-05-19T18:22:59;3.77;;;1.03;;
14520;SDS011;7347;50.844;4.490;2023-05-19T18:25:26;2.60;;;0.97;;
14520;SDS011;7347;50.844;4.490;2023-05-19T18:27:53;2.67;;;1.00;;
14520;SDS011;7347;50.844;4.490;2023-05-19T18:30:20;3.10;;;0.90;;
14520;SDS011;7347;50.844;4.490;2023-05-19T18:32:47;4.17;;;1.20;;
14520;SDS011;7347;50.844;4.490;2023-05-19T18:35:16;5.77;;;1.30;;
14520;SDS011;7347;50.844;4.490;2023-05-19T18:37:44;2.93;;;1.00;;
14520;SDS011;7347;50.844;4.490;2023-05-19T18:40:11;2.53;;;1.00;;
14520;SDS011;7347;50.844;4.490;2023-05-19T18:42:38;1.27;;;0.80;;
14520;SDS011;7347;50.844;4.490;2023-05-19T18:45:05;5.17;;;1.07;;
14520;SDS011;7347;50.844;4.490;2023-05-19T18:47:33;2.30;;;1.07;;
14520;SDS011;7347;50.844;4.490;2023-05-19T18:49:59;2.07;;;0.90;;
14520;SDS011;7347;50.844;4.490;2023-05-19T18:52:28;4.90;;;1.13;;
14520;SDS011;7347;50.844;4.490;2023-05-19T18:54:55;3.33;;;1.03;;
14520;SDS011;7347;50.844;4.490;2023-05-19T18:57:23;5.87;;;1.37;;
14520;SDS011;7347;50.844;4.490;2023-05-19T18:59:50;3.23;;;1.30;;
14520;SDS011;7347;50.844;4.490;2023-05-19T19:02:17;4.70;;;1.00;;
14520;SDS011;7347;50.844;4.490;2023-05-19T19:04:44;3.30;;;1.10;;
14520;SDS011;7347;50.844;4.490;2023-05-19T19:07:11;3.53;;;1.00;;
14520;SDS011;7347;50.844;4.490;2023-05-19T19:09:39;3.23;;;0.90;;
14520;SDS011;7347;50.844;4.490;2023-05-19T19:12:07;2.93;;;1.33;;
14520;SDS011;7347;50.844;4.490;2023-05-19T19:14:34;3.57;;;1.20;;
14520;SDS011;7347;50.844;4.490;2023-05-19T19:17:02;1.43;;;1.00;;
14520;SDS011;7347;50.844;4.490;2023-05-19T19:19:29;3.53;;;1.20;;
14520;SDS011;7347;50.844;4.490;2023-05-19T19:21:56;4.77;;;1.20;;
14520;SDS011;7347;50.844;4.490;2023-05-19T19:24:23;2.73;;;1.00;;
14520;SDS011;7347;50.844;4.490;2023-05-19T19:26:53;1.87;;;1.00;;
14520;SDS011;7347;50.844;4.490;2023-05-19T19:29:20;2.70;;;0.80;;
14520;SDS011;7347;50.844;4.490;2023-05-19T19:31:47;6.30;;;1.43;;
14520;SDS011;7347;50.844;4.490;2023-05-19T19:34:14;1.53;;;1.00;;
14520;SDS011;7347;50.844;4.490;2023-05-19T19:36:43;4.63;;;1.50;;
14520;SDS011;7347;50.844;4.490;2023-05-19T19:39:11;2.87;;;1.40;;
14520;SDS011;7347;50.844;4.490;2023-05-19T19:41:38;1.87;;;1.07;;
14520;SDS011;7347;50.844;4.490;2023-05-19T19:44:07;7.33;;;1.10;;
14520;SDS011;7347;50.844;4.490;2023-05-19T19:46:34;2.87;;;1.10;;
14520;SDS011;7347;50.844;4.490;2023-05-19T19:49:01;3.27;;;1.00;;
14520;SDS011;7347;50.844;4.490;2023-05-19T19:51:28;1.83;;;1.10;;
14520;SDS011;7347;50.844;4.490;2023-05-19T19:53:55;3.37;;;1.27;;
14520;SDS011;7347;50.844;4.490;2023-05-19T19:56:22;5.40;;;1.27;;
14520;SDS011;7347;50.844;4.490;2023-05-19T19:58:51;3.33;;;1.23;;
14520;SDS011;7347;50.844;4.490;2023-05-19T20:01:19;2.17;;;1.40;;
14520;SDS011;7347;50.844;4.490;2023-05-19T20:03:47;2.47;;;1.27;;
14520;SDS011;7347;50.844;4.490;2023-05-19T20:06:14;3.23;;;1.07;;
14520;SDS011;7347;50.844;4.490;2023-05-19T20:08:41;3.47;;;1.30;;
14520;SDS011;7347;50.844;4.490;2023-05-19T20:11:08;4.30;;;1.53;;
14520;SDS011;7347;50.844;4.490;2023-05-19T20:13:35;2.27;;;1.00;;
14520;SDS011;7347;50.844;4.490;2023-05-19T20:16:02;4.20;;;1.47;;
14520;SDS011;7347;50.844;4.490;2023-05-19T20:18:30;3.40;;;1.13;;
14520;SDS011;7347;50.844;4.490;2023-05-19T20:20:57;4.13;;;1.17;;
14520;SDS011;7347;50.844;4.490;2023-05-19T20:23:24;5.13;;;1.27;;
14520;SDS011;7347;50.844;4.490;2023-05-19T20:25:51;5.47;;;1.33;;
14520;SDS011;7347;50.844;4.490;2023-05-19T20:28:18;2.90;;;1.53;;
14520;SDS011;7347;50.844;4.490;2023-05-19T20:30:45;2.23;;;1.03;;
14520;SDS011;7347;50.844;4.490;2023-05-19T20:33:12;3.43;;;1.40;;
14520;SDS011;7347;50.844;4.490;2023-05-19T20:35:40;5.43;;;1.40;;
14520;SDS011;7347;50.844;4.490;2023-05-19T20:38:07;3.00;;;1.60;;
14520;SDS011;7347;50.844;4.490;2023-05-19T20:40:35;4.17;;;1.63;;
14520;SDS011;7347;50.844;4.490;2023-05-19T20:43:02;2.13;;;1.10;;
14520;SDS011;7347;50.844;4.490;2023-05-19T20:45:29;5.00;;;1.90;;
14520;SDS011;7347;50.844;4.490;2023-05-19T20:47:56;2.87;;;2.17;;
14520;SDS011;7347;50.844;4.490;2023-05-19T20:50:23;6.93;;;1.43;;
14520;SDS011;7347;50.844;4.490;2023-05-19T20:52:51;2.90;;;1.20;;
14520;SDS011;7347;50.844;4.490;2023-05-19T20:55:18;2.60;;;1.27;;
14520;SDS011;7347;50.844;4.490;2023-05-19T20:57:45;2.80;;;1.30;;
14520;SDS011;7347;50.844;4.490;2023-05-19T21:00:12;3.20;;;1.30;;
14520;SDS011;7347;50.844;4.490;2023-05-19T21:02:40;5.47;;;1.20;;
14520;SDS011;7347;50.844;4.490;2023-05-19T21:05:07;4.10;;;1.33;;
14520;SDS011;7347;50.844;4.490;2023-05-19T21:07:34;3.40;;;1.57;;
14520;SDS011;7347;50.844;4.490;2023-05-19T21:10:02;3.47;;;1.80;;
14520;SDS011;7347;50.844;4.490;2023-05-19T21:12:29;2.57;;;1.20;;
14520;SDS011;7347;50.844;4.490;2023-05-19T21:14:58;5.53;;;1.30;;
14520;SDS011;7347;50.844;4.490;2023-05-19T21:17:25;4.73;;;1.30;;
14520;SDS011;7347;50.844;4.490;2023-05-19T21:19:52;3.73;;;1.20;;
14520;SDS011;7347;50.844;4.490;2023-05-19T21:22:23;5.00;;;1.43;;
14520;SDS011;7347;50.844;4.490;2023-05-19T21:24:50;1.83;;;1.13;;
14520;SDS011;7347;50.844;4.490;2023-05-19T21:27:19;3.40;;;1.30;;
14520;SDS011;7347;50.844;4.490;2023-05-19T21:29:46;3.63;;;1.60;;
14520;SDS011;7347;50.844;4.490;2023-05-19T21:32:16;3.43;;;1.37;;
14520;SDS011;7347;50.844;4.490;2023-05-19T21:34:43;4.03;;;1.57;;